Aviation Digital Data Service (ADDS)

Output produced by METARs form (0832 UTC 04 March 2015)
found at http://aviationweather.gov/adds/metars/
 
KILM 040527Z 0406/0506 21003KT 1/2SM FG OVC002 
     FM041000 22006KT 1SM BR OVC002 WS010/22030KT 
     FM041200 22008KT 3SM BR BKN004 WS010/23038KT 
     FM041500 22013G22KT 6SM BR BKN008 
     FM041800 22013G20KT P6SM BKN020 
     FM050100 21010KT 4SM BR BKN002